sensor_id;sensor_type;location;lat;lon;timestamp;temperature;humidity
13268;DHT22;6702;47.068;15.458;2023-04-03T00:01:06;9.10;53.20
13268;DHT22;6702;47.068;15.458;2023-04-03T00:04:09;9.00;53.30
13268;DHT22;6702;47.068;15.458;2023-04-03T00:07:12;8.90;53.40
13268;DHT22;6702;47.068;15.458;2023-04-03T00:10:18;8.90;53.30
13268;DHT22;6702;47.068;15.458;2023-04-03T00:13:21;8.80;53.10
13268;DHT22;6702;47.068;15.458;2023-04-03T00:16:24;8.80;53.60
13268;DHT22;6702;47.068;15.458;2023-04-03T00:19:27;8.80;53.50
13268;DHT22;6702;47.068;15.458;2023-04-03T00:22:31;8.80;53.80
13268;DHT22;6702;47.068;15.458;2023-04-03T00:25:35;8.80;53.70
13268;DHT22;6702;47.068;15.458;2023-04-03T00:28:39;8.70;53.50
13268;DHT22;6702;47.068;15.458;2023-04-03T00:31:42;8.70;53.50
13268;DHT22;6702;47.068;15.458;2023-04-03T00:34:45;8.70;53.50
13268;DHT22;6702;47.068;15.458;2023-04-03T00:37:51;8.70;53.50
13268;DHT22;6702;47.068;15.458;2023-04-03T00:40:56;8.70;53.50
13268;DHT22;6702;47.068;15.458;2023-04-03T00:43:59;8.70;53.50
13268;DHT22;6702;47.068;15.458;2023-04-03T00:47:04;8.60;53.80
13268;DHT22;6702;47.068;15.458;2023-04-03T00:50:08;8.50;54.20
13268;DHT22;6702;47.068;15.458;2023-04-03T00:53:14;8.50;54.20
13268;DHT22;6702;47.068;15.458;2023-04-03T00:56:23;8.40;54.90
13268;DHT22;6702;47.068;15.458;2023-04-03T00:59:31;8.30;55.40
13268;DHT22;6702;47.068;15.458;2023-04-03T01:02:35;8.30;55.90
13268;DHT22;6702;47.068;15.458;2023-04-03T01:05:39;8.20;56.30
13268;DHT22;6702;47.068;15.458;2023-04-03T01:08:44;8.20;56.30
13268;DHT22;6702;47.068;15.458;2023-04-03T01:11:50;8.20;56.10
13268;DHT22;6702;47.068;15.458;2023-04-03T01:14:54;8.10;56.40
13268;DHT22;6702;47.068;15.458;2023-04-03T01:17:58;8.10;56.60
13268;DHT22;6702;47.068;15.458;2023-04-03T01:21:37;8.00;56.60
13268;DHT22;6702;47.068;15.458;2023-04-03T01:24:43;7.90;57.10
13268;DHT22;6702;47.068;15.458;2023-04-03T01:27:50;7.80;57.00
13268;DHT22;6702;47.068;15.458;2023-04-03T01:30:59;7.70;57.10
13268;DHT22;6702;47.068;15.458;2023-04-03T01:34:06;7.70;57.30
13268;DHT22;6702;47.068;15.458;2023-04-03T01:37:09;7.70;57.50
13268;DHT22;6702;47.068;15.458;2023-04-03T01:40:12;7.70;57.40
13268;DHT22;6702;47.068;15.458;2023-04-03T01:43:15;7.70;57.20
13268;DHT22;6702;47.068;15.458;2023-04-03T01:46:19;7.60;57.80
13268;DHT22;6702;47.068;15.458;2023-04-03T01:49:24;7.60;57.40
13268;DHT22;6702;47.068;15.458;2023-04-03T01:52:27;7.60;57.40
13268;DHT22;6702;47.068;15.458;2023-04-03T01:55:30;7.60;57.40
13268;DHT22;6702;47.068;15.458;2023-04-03T01:58:33;7.50;56.90
13268;DHT22;6702;47.068;15.458;2023-04-03T02:01:36;7.50;57.10
13268;DHT22;6702;47.068;15.458;2023-04-03T02:04:41;7.50;57.10
13268;DHT22;6702;47.068;15.458;2023-04-03T02:07:44;7.40;57.00
13268;DHT22;6702;47.068;15.458;2023-04-03T02:10:48;7.40;57.10
13268;DHT22;6702;47.068;15.458;2023-04-03T02:13:52;7.40;57.20
13268;DHT22;6702;47.068;15.458;2023-04-03T02:16:55;7.40;57.10
13268;DHT22;6702;47.068;15.458;2023-04-03T02:20:00;7.30;56.90
13268;DHT22;6702;47.068;15.458;2023-04-03T02:23:03;7.20;57.00
13268;DHT22;6702;47.068;15.458;2023-04-03T02:26:09;7.20;57.30
13268;DHT22;6702;47.068;15.458;2023-04-03T02:29:12;7.20;57.40
13268;DHT22;6702;47.068;15.458;2023-04-03T02:32:15;7.10;57.30
13268;DHT22;6702;47.068;15.458;2023-04-03T02:35:20;7.10;57.40
13268;DHT22;6702;47.068;15.458;2023-04-03T02:38:23;7.10;57.30
13268;DHT22;6702;47.068;15.458;2023-04-03T02:41:27;7.10;57.30
13268;DHT22;6702;47.068;15.458;2023-04-03T02:44:36;7.10;57.30
13268;DHT22;6702;47.068;15.458;2023-04-03T02:47:40;7.20;57.60
13268;DHT22;6702;47.068;15.458;2023-04-03T02:50:45;7.10;57.60
13268;DHT22;6702;47.068;15.458;2023-04-03T02:53:48;7.10;58.00
13268;DHT22;6702;47.068;15.458;2023-04-03T02:56:52;7.10;58.40
13268;DHT22;6702;47.068;15.458;2023-04-03T02:59:55;7.10;57.80
13268;DHT22;6702;47.068;15.458;2023-04-03T03:02:58;7.00;57.40
13268;DHT22;6702;47.068;15.458;2023-04-03T03:06:04;7.00;57.30
13268;DHT22;6702;47.068;15.458;2023-04-03T03:09:08;7.10;57.30
13268;DHT22;6702;47.068;15.458;2023-04-03T03:12:11;7.10;57.00
13268;DHT22;6702;47.068;15.458;2023-04-03T03:15:14;7.20;57.00
13268;DHT22;6702;47.068;15.458;2023-04-03T03:18:19;7.20;56.70
13268;DHT22;6702;47.068;15.458;2023-04-03T03:21:23;7.20;56.50
13268;DHT22;6702;47.068;15.458;2023-04-03T03:24:26;7.20;56.50
13268;DHT22;6702;47.068;15.458;2023-04-03T03:27:29;7.20;56.40
13268;DHT22;6702;47.068;15.458;2023-04-03T03:30:33;7.20;56.40
13268;DHT22;6702;47.068;15.458;2023-04-03T03:33:36;7.20;56.70
13268;DHT22;6702;47.068;15.458;2023-04-03T03:36:41;7.30;56.90
13268;DHT22;6702;47.068;15.458;2023-04-03T03:39:44;7.20;56.80
13268;DHT22;6702;47.068;15.458;2023-04-03T03:42:47;7.30;56.90
13268;DHT22;6702;47.068;15.458;2023-04-03T03:45:51;7.30;57.00
13268;DHT22;6702;47.068;15.458;2023-04-03T03:48:54;7.30;56.90
13268;DHT22;6702;47.068;15.458;2023-04-03T03:51:59;7.30;56.70
13268;DHT22;6702;47.068;15.458;2023-04-03T03:55:02;7.40;56.90
13268;DHT22;6702;47.068;15.458;2023-04-03T03:58:06;7.40;57.00
13268;DHT22;6702;47.068;15.458;2023-04-03T04:01:09;7.50;57.00
13268;DHT22;6702;47.068;15.458;2023-04-03T04:04:13;7.50;56.70
13268;DHT22;6702;47.068;15.458;2023-04-03T04:07:17;7.50;56.70
13268;DHT22;6702;47.068;15.458;2023-04-03T04:10:20;7.60;56.80
13268;DHT22;6702;47.068;15.458;2023-04-03T04:13:24;7.60;56.80
13268;DHT22;6702;47.068;15.458;2023-04-03T04:16:27;7.70;56.80
13268;DHT22;6702;47.068;15.458;2023-04-03T04:19:30;7.70;56.60
13268;DHT22;6702;47.068;15.458;2023-04-03T04:22:36;7.70;56.40
13268;DHT22;6702;47.068;15.458;2023-04-03T04:25:39;7.80;56.80
13268;DHT22;6702;47.068;15.458;2023-04-03T04:28:42;7.80;56.50
13268;DHT22;6702;47.068;15.458;2023-04-03T04:31:46;7.80;56.40
13268;DHT22;6702;47.068;15.458;2023-04-03T04:34:49;7.80;56.00
13268;DHT22;6702;47.068;15.458;2023-04-03T04:37:53;7.80;55.80
13268;DHT22;6702;47.068;15.458;2023-04-03T04:40:56;7.80;55.60
13268;DHT22;6702;47.068;15.458;2023-04-03T04:44:00;7.90;55.50
13268;DHT22;6702;47.068;15.458;2023-04-03T04:47:03;8.00;55.50
13268;DHT22;6702;47.068;15.458;2023-04-03T04:50:07;8.10;55.20
13268;DHT22;6702;47.068;15.458;2023-04-03T04:53:11;8.00;55.20
13268;DHT22;6702;47.068;15.458;2023-04-03T04:56:14;8.00;54.40
13268;DHT22;6702;47.068;15.458;2023-04-03T04:59:18;8.10;53.90
13268;DHT22;6702;47.068;15.458;2023-04-03T05:02:22;8.10;53.90
13268;DHT22;6702;47.068;15.458;2023-04-03T05:05:26;8.10;53.90
13268;DHT22;6702;47.068;15.458;2023-04-03T05:08:31;8.20;54.00
13268;DHT22;6702;47.068;15.458;2023-04-03T05:11:34;8.10;54.50
13268;DHT22;6702;47.068;15.458;2023-04-03T05:14:37;8.20;54.00
13268;DHT22;6702;47.068;15.458;2023-04-03T05:17:41;8.20;54.00
13268;DHT22;6702;47.068;15.458;2023-04-03T05:20:44;8.20;53.90
13268;DHT22;6702;47.068;15.458;2023-04-03T05:23:48;8.20;53.60
13268;DHT22;6702;47.068;15.458;2023-04-03T05:26:52;8.20;53.60
13268;DHT22;6702;47.068;15.458;2023-04-03T05:29:55;8.30;54.00
13268;DHT22;6702;47.068;15.458;2023-04-03T05:32:59;8.40;53.30
13268;DHT22;6702;47.068;15.458;2023-04-03T05:36:04;8.40;53.30
13268;DHT22;6702;47.068;15.458;2023-04-03T05:39:09;8.40;53.20
13268;DHT22;6702;47.068;15.458;2023-04-03T05:42:12;8.40;53.30
13268;DHT22;6702;47.068;15.458;2023-04-03T05:45:16;8.50;53.10
13268;DHT22;6702;47.068;15.458;2023-04-03T05:48:20;8.60;53.00
13268;DHT22;6702;47.068;15.458;2023-04-03T05:51:25;8.70;53.10
13268;DHT22;6702;47.068;15.458;2023-04-03T05:54:30;8.70;53.10
13268;DHT22;6702;47.068;15.458;2023-04-03T05:57:34;8.70;52.60
13268;DHT22;6702;47.068;15.458;2023-04-03T06:00:37;8.70;52.40
13268;DHT22;6702;47.068;15.458;2023-04-03T06:03:40;8.60;52.10
13268;DHT22;6702;47.068;15.458;2023-04-03T06:06:45;8.60;52.30
13268;DHT22;6702;47.068;15.458;2023-04-03T06:09:50;8.60;52.10
13268;DHT22;6702;47.068;15.458;2023-04-03T06:12:54;8.70;52.20
13268;DHT22;6702;47.068;15.458;2023-04-03T06:15:57;8.70;52.20
13268;DHT22;6702;47.068;15.458;2023-04-03T06:19:00;8.70;52.40
13268;DHT22;6702;47.068;15.458;2023-04-03T06:22:04;8.80;52.30
13268;DHT22;6702;47.068;15.458;2023-04-03T06:25:09;8.90;52.30
13268;DHT22;6702;47.068;15.458;2023-04-03T06:28:12;9.10;51.50
13268;DHT22;6702;47.068;15.458;2023-04-03T06:31:15;9.20;51.70
13268;DHT22;6702;47.068;15.458;2023-04-03T06:34:19;9.60;51.40
13268;DHT22;6702;47.068;15.458;2023-04-03T06:37:23;10.20;49.30
13268;DHT22;6702;47.068;15.458;2023-04-03T06:40:29;11.40;47.70
13268;DHT22;6702;47.068;15.458;2023-04-03T06:43:32;12.10;45.80
13268;DHT22;6702;47.068;15.458;2023-04-03T06:46:36;12.90;44.40
13268;DHT22;6702;47.068;15.458;2023-04-03T06:49:39;14.40;43.50
13268;DHT22;6702;47.068;15.458;2023-04-03T06:52:43;15.90;40.30
13268;DHT22;6702;47.068;15.458;2023-04-03T06:55:48;17.10;38.20
13268;DHT22;6702;47.068;15.458;2023-04-03T06:58:51;17.00;36.40
13268;DHT22;6702;47.068;15.458;2023-04-03T07:01:56;15.80;36.80
13268;DHT22;6702;47.068;15.458;2023-04-03T07:05:00;14.90;38.20
13268;DHT22;6702;47.068;15.458;2023-04-03T07:08:04;14.20;39.50
13268;DHT22;6702;47.068;15.458;2023-04-03T07:11:10;14.20;39.60
13268;DHT22;6702;47.068;15.458;2023-04-03T07:14:13;15.30;39.10
13268;DHT22;6702;47.068;15.458;2023-04-03T07:17:16;16.70;36.60
13268;DHT22;6702;47.068;15.458;2023-04-03T07:20:19;16.00;36.10
13268;DHT22;6702;47.068;15.458;2023-04-03T07:23:23;15.00;36.30
13268;DHT22;6702;47.068;15.458;2023-04-03T07:26:28;14.30;38.10
13268;DHT22;6702;47.068;15.458;2023-04-03T07:29:31;16.50;38.00
13268;DHT22;6702;47.068;15.458;2023-04-03T07:32:34;18.50;32.90
13268;DHT22;6702;47.068;15.458;2023-04-03T07:35:38;19.60;31.40
13268;DHT22;6702;47.068;15.458;2023-04-03T07:38:42;18.60;30.90
13268;DHT22;6702;47.068;15.458;2023-04-03T07:41:46;17.20;32.90
13268;DHT22;6702;47.068;15.458;2023-04-03T07:44:49;15.80;35.30
13268;DHT22;6702;47.068;15.458;2023-04-03T07:47:53;14.80;35.70
13268;DHT22;6702;47.068;15.458;2023-04-03T07:50:59;13.80;38.60
13268;DHT22;6702;47.068;15.458;2023-04-03T07:54:03;15.30;38.90
13268;DHT22;6702;47.068;15.458;2023-04-03T07:57:08;17.40;35.60
13268;DHT22;6702;47.068;15.458;2023-04-03T08:00:12;19.70;31.50
13268;DHT22;6702;47.068;15.458;2023-04-03T08:03:16;19.40;29.70
13268;DHT22;6702;47.068;15.458;2023-04-03T08:06:20;17.60;29.80
13268;DHT22;6702;47.068;15.458;2023-04-03T08:09:38;16.10;31.10
13268;DHT22;6702;47.068;15.458;2023-04-03T08:12:45;14.70;32.40
13268;DHT22;6702;47.068;15.458;2023-04-03T08:15:49;13.90;34.20
13268;DHT22;6702;47.068;15.458;2023-04-03T08:18:52;13.50;35.30
13268;DHT22;6702;47.068;15.458;2023-04-03T08:21:56;13.60;34.90
13268;DHT22;6702;47.068;15.458;2023-04-03T08:25:00;14.00;35.30
13268;DHT22;6702;47.068;15.458;2023-04-03T08:28:05;14.20;34.90
13268;DHT22;6702;47.068;15.458;2023-04-03T08:31:10;14.40;34.20
13268;DHT22;6702;47.068;15.458;2023-04-03T08:34:15;14.90;33.80
13268;DHT22;6702;47.068;15.458;2023-04-03T08:37:19;15.80;33.20
13268;DHT22;6702;47.068;15.458;2023-04-03T08:40:23;16.10;31.80
13268;DHT22;6702;47.068;15.458;2023-04-03T08:43:35;16.10;31.20
13268;DHT22;6702;47.068;15.458;2023-04-03T08:46:48;15.60;31.40
13268;DHT22;6702;47.068;15.458;2023-04-03T08:49:57;15.10;30.90
13268;DHT22;6702;47.068;15.458;2023-04-03T08:53:02;14.70;32.40
13268;DHT22;6702;47.068;15.458;2023-04-03T08:56:09;16.60;31.10
13268;DHT22;6702;47.068;15.458;2023-04-03T08:59:18;18.20;30.00
13268;DHT22;6702;47.068;15.458;2023-04-03T09:02:27;20.40;26.90
13268;DHT22;6702;47.068;15.458;2023-04-03T09:05:39;19.20;26.60
13268;DHT22;6702;47.068;15.458;2023-04-03T09:08:49;17.70;27.30
13268;DHT22;6702;47.068;15.458;2023-04-03T09:11:58;16.30;27.60
13268;DHT22;6702;47.068;15.458;2023-04-03T09:15:09;15.60;28.00
13268;DHT22;6702;47.068;15.458;2023-04-03T09:18:18;14.50;28.80
13268;DHT22;6702;47.068;15.458;2023-04-03T09:21:29;13.50;29.80
13268;DHT22;6702;47.068;15.458;2023-04-03T09:24:35;12.90;30.60
13268;DHT22;6702;47.068;15.458;2023-04-03T09:27:40;12.40;32.00
13268;DHT22;6702;47.068;15.458;2023-04-03T09:30:45;12.10;32.30
13268;DHT22;6702;47.068;15.458;2023-04-03T09:33:50;11.80;32.90
13268;DHT22;6702;47.068;15.458;2023-04-03T09:36:55;11.60;33.10
13268;DHT22;6702;47.068;15.458;2023-04-03T09:39:58;11.60;32.90
13268;DHT22;6702;47.068;15.458;2023-04-03T09:46:30;11.40;33.40
13268;DHT22;6702;47.068;15.458;2023-04-03T09:49:34;11.00;33.20
13268;DHT22;6702;47.068;15.458;2023-04-03T09:52:37;10.90;33.50
13268;DHT22;6702;47.068;15.458;2023-04-03T09:55:42;10.80;33.00
13268;DHT22;6702;47.068;15.458;2023-04-03T09:58:48;10.80;33.40
13268;DHT22;6702;47.068;15.458;2023-04-03T10:02:02;11.00;34.10
13268;DHT22;6702;47.068;15.458;2023-04-03T10:05:30;11.30;34.10
13268;DHT22;6702;47.068;15.458;2023-04-03T10:08:35;11.60;33.80
13268;DHT22;6702;47.068;15.458;2023-04-03T10:11:38;11.70;32.50
13268;DHT22;6702;47.068;15.458;2023-04-03T10:15:00;11.80;32.90
13268;DHT22;6702;47.068;15.458;2023-04-03T10:18:26;13.40;32.20
13268;DHT22;6702;47.068;15.458;2023-04-03T10:21:37;14.20;31.40
13268;DHT22;6702;47.068;15.458;2023-04-03T10:24:50;15.20;29.20
13268;DHT22;6702;47.068;15.458;2023-04-03T10:27:58;15.30;28.80
13268;DHT22;6702;47.068;15.458;2023-04-03T10:31:10;15.20;28.70
13268;DHT22;6702;47.068;15.458;2023-04-03T10:34:22;15.10;29.30
13268;DHT22;6702;47.068;15.458;2023-04-03T10:37:33;15.00;29.40
13268;DHT22;6702;47.068;15.458;2023-04-03T10:40:45;14.70;30.30
13268;DHT22;6702;47.068;15.458;2023-04-03T10:43:56;14.40;30.40
13268;DHT22;6702;47.068;15.458;2023-04-03T10:47:05;14.40;31.30
13268;DHT22;6702;47.068;15.458;2023-04-03T10:50:26;14.40;31.30
13268;DHT22;6702;47.068;15.458;2023-04-03T10:53:34;14.20;31.10
13268;DHT22;6702;47.068;15.458;2023-04-03T10:56:41;13.90;31.50
13268;DHT22;6702;47.068;15.458;2023-04-03T10:59:48;13.80;31.90
13268;DHT22;6702;47.068;15.458;2023-04-03T11:02:55;13.60;32.50
13268;DHT22;6702;47.068;15.458;2023-04-03T11:06:02;13.40;31.60
13268;DHT22;6702;47.068;15.458;2023-04-03T11:09:15;13.10;32.60
13268;DHT22;6702;47.068;15.458;2023-04-03T11:12:24;12.90;32.50
13268;DHT22;6702;47.068;15.458;2023-04-03T11:15:30;12.70;32.20
13268;DHT22;6702;47.068;15.458;2023-04-03T11:18:39;12.60;32.60
13268;DHT22;6702;47.068;15.458;2023-04-03T11:21:47;12.40;32.20
13268;DHT22;6702;47.068;15.458;2023-04-03T11:24:59;12.50;32.20
13268;DHT22;6702;47.068;15.458;2023-04-03T11:28:11;12.70;32.30
13268;DHT22;6702;47.068;15.458;2023-04-03T11:34:54;12.70;32.50
13268;DHT22;6702;47.068;15.458;2023-04-03T11:38:03;12.20;32.20
13268;DHT22;6702;47.068;15.458;2023-04-03T11:41:09;12.20;32.00
13268;DHT22;6702;47.068;15.458;2023-04-03T11:44:35;12.50;33.10
13268;DHT22;6702;47.068;15.458;2023-04-03T11:47:47;13.20;32.40
13268;DHT22;6702;47.068;15.458;2023-04-03T11:50:51;13.50;31.60
13268;DHT22;6702;47.068;15.458;2023-04-03T11:58:03;13.40;31.00
13268;DHT22;6702;47.068;15.458;2023-04-03T12:01:09;12.90;33.60
13268;DHT22;6702;47.068;15.458;2023-04-03T12:04:15;12.80;34.70
13268;DHT22;6702;47.068;15.458;2023-04-03T12:07:19;12.60;33.90
13268;DHT22;6702;47.068;15.458;2023-04-03T12:10:23;12.70;34.50
13268;DHT22;6702;47.068;15.458;2023-04-03T12:13:35;12.80;33.50
13268;DHT22;6702;47.068;15.458;2023-04-03T12:16:43;13.10;33.30
13268;DHT22;6702;47.068;15.458;2023-04-03T12:19:47;13.20;33.50
13268;DHT22;6702;47.068;15.458;2023-04-03T12:23:08;13.20;31.80
13268;DHT22;6702;47.068;15.458;2023-04-03T12:26:27;13.40;31.00
13268;DHT22;6702;47.068;15.458;2023-04-03T12:29:53;13.50;31.40
13268;DHT22;6702;47.068;15.458;2023-04-03T12:33:11;13.60;30.10
13268;DHT22;6702;47.068;15.458;2023-04-03T12:36:28;13.00;29.80
13268;DHT22;6702;47.068;15.458;2023-04-03T12:39:51;13.10;30.00
13268;DHT22;6702;47.068;15.458;2023-04-03T12:43:09;13.10;30.40
13268;DHT22;6702;47.068;15.458;2023-04-03T12:46:22;13.00;30.90
13268;DHT22;6702;47.068;15.458;2023-04-03T12:49:35;13.10;31.10
13268;DHT22;6702;47.068;15.458;2023-04-03T12:52:41;13.20;30.30
13268;DHT22;6702;47.068;15.458;2023-04-03T12:55:47;13.50;30.00
13268;DHT22;6702;47.068;15.458;2023-04-03T12:58:51;13.60;29.50
13268;DHT22;6702;47.068;15.458;2023-04-03T13:01:59;13.70;29.60
13268;DHT22;6702;47.068;15.458;2023-04-03T13:05:06;13.90;29.70
13268;DHT22;6702;47.068;15.458;2023-04-03T13:08:12;13.90;29.80
13268;DHT22;6702;47.068;15.458;2023-04-03T13:11:18;13.70;30.00
13268;DHT22;6702;47.068;15.458;2023-04-03T13:14:25;13.40;29.80
13268;DHT22;6702;47.068;15.458;2023-04-03T13:17:31;13.30;30.70
13268;DHT22;6702;47.068;15.458;2023-04-03T13:20:36;13.10;30.90
13268;DHT22;6702;47.068;15.458;2023-04-03T13:23:43;12.90;30.00
13268;DHT22;6702;47.068;15.458;2023-04-03T13:26:47;12.80;30.60
13268;DHT22;6702;47.068;15.458;2023-04-03T13:29:53;12.60;30.00
13268;DHT22;6702;47.068;15.458;2023-04-03T13:33:00;12.40;30.60
13268;DHT22;6702;47.068;15.458;2023-04-03T13:36:06;12.50;30.80
13268;DHT22;6702;47.068;15.458;2023-04-03T13:39:22;12.70;30.70
13268;DHT22;6702;47.068;15.458;2023-04-03T13:42:28;12.90;31.20
13268;DHT22;6702;47.068;15.458;2023-04-03T13:45:33;12.70;31.80
13268;DHT22;6702;47.068;15.458;2023-04-03T13:48:41;12.60;31.40
13268;DHT22;6702;47.068;15.458;2023-04-03T13:51:45;12.70;31.70
13268;DHT22;6702;47.068;15.458;2023-04-03T13:55:16;12.80;31.80
13268;DHT22;6702;47.068;15.458;2023-04-03T13:58:26;12.90;31.60
13268;DHT22;6702;47.068;15.458;2023-04-03T14:01:40;12.90;31.50
13268;DHT22;6702;47.068;15.458;2023-04-03T14:04:52;12.90;30.60
13268;DHT22;6702;47.068;15.458;2023-04-03T14:07:58;12.70;30.20
13268;DHT22;6702;47.068;15.458;2023-04-03T14:11:01;12.70;30.40
13268;DHT22;6702;47.068;15.458;2023-04-03T14:14:11;12.70;30.30
13268;DHT22;6702;47.068;15.458;2023-04-03T14:17:18;12.80;30.50
13268;DHT22;6702;47.068;15.458;2023-04-03T14:20:27;12.80;30.00
13268;DHT22;6702;47.068;15.458;2023-04-03T14:23:31;12.80;30.50
13268;DHT22;6702;47.068;15.458;2023-04-03T14:26:34;12.80;29.40
13268;DHT22;6702;47.068;15.458;2023-04-03T14:29:38;12.60;29.90
13268;DHT22;6702;47.068;15.458;2023-04-03T14:32:41;12.50;30.80
13268;DHT22;6702;47.068;15.458;2023-04-03T14:35:46;12.50;31.20
13268;DHT22;6702;47.068;15.458;2023-04-03T14:38:50;12.50;31.50
13268;DHT22;6702;47.068;15.458;2023-04-03T14:41:54;12.20;30.50
13268;DHT22;6702;47.068;15.458;2023-04-03T14:44:58;12.10;31.50
13268;DHT22;6702;47.068;15.458;2023-04-03T14:48:03;12.00;31.00
13268;DHT22;6702;47.068;15.458;2023-04-03T14:51:10;12.00;31.30
13268;DHT22;6702;47.068;15.458;2023-04-03T14:54:15;12.00;31.20
13268;DHT22;6702;47.068;15.458;2023-04-03T14:57:20;12.10;31.50
13268;DHT22;6702;47.068;15.458;2023-04-03T15:00:25;12.30;31.20
13268;DHT22;6702;47.068;15.458;2023-04-03T15:03:29;12.30;30.70
13268;DHT22;6702;47.068;15.458;2023-04-03T15:06:34;12.20;30.40
13268;DHT22;6702;47.068;15.458;2023-04-03T15:09:37;12.20;33.20
13268;DHT22;6702;47.068;15.458;2023-04-03T15:12:40;12.20;31.60
13268;DHT22;6702;47.068;15.458;2023-04-03T15:15:44;12.20;32.40
13268;DHT22;6702;47.068;15.458;2023-04-03T15:18:48;12.00;31.80
13268;DHT22;6702;47.068;15.458;2023-04-03T15:21:53;11.80;31.30
13268;DHT22;6702;47.068;15.458;2023-04-03T15:24:56;11.40;30.60
13268;DHT22;6702;47.068;15.458;2023-04-03T15:28:00;11.30;31.60
13268;DHT22;6702;47.068;15.458;2023-04-03T15:31:03;11.10;31.20
13268;DHT22;6702;47.068;15.458;2023-04-03T15:34:07;10.90;30.80
13268;DHT22;6702;47.068;15.458;2023-04-03T15:37:11;10.60;30.90
13268;DHT22;6702;47.068;15.458;2023-04-03T15:40:15;10.70;31.40
13268;DHT22;6702;47.068;15.458;2023-04-03T15:43:18;10.70;32.10
13268;DHT22;6702;47.068;15.458;2023-04-03T15:46:21;10.60;31.40
13268;DHT22;6702;47.068;15.458;2023-04-03T15:49:25;10.50;32.10
13268;DHT22;6702;47.068;15.458;2023-04-03T15:52:29;10.50;31.90
13268;DHT22;6702;47.068;15.458;2023-04-03T15:55:34;10.40;31.90
13268;DHT22;6702;47.068;15.458;2023-04-03T15:58:39;10.20;31.40
13268;DHT22;6702;47.068;15.458;2023-04-03T16:01:43;10.20;32.50
13268;DHT22;6702;47.068;15.458;2023-04-03T16:04:47;10.20;32.40
13268;DHT22;6702;47.068;15.458;2023-04-03T16:07:51;10.30;32.80
13268;DHT22;6702;47.068;15.458;2023-04-03T16:10:55;10.30;32.90
13268;DHT22;6702;47.068;15.458;2023-04-03T16:13:58;10.30;32.80
13268;DHT22;6702;47.068;15.458;2023-04-03T16:17:02;10.30;32.70
13268;DHT22;6702;47.068;15.458;2023-04-03T16:20:07;10.40;32.30
13268;DHT22;6702;47.068;15.458;2023-04-03T16:23:12;10.40;31.70
13268;DHT22;6702;47.068;15.458;2023-04-03T16:26:16;10.20;31.30
13268;DHT22;6702;47.068;15.458;2023-04-03T16:29:20;10.10;30.70
13268;DHT22;6702;47.068;15.458;2023-04-03T16:32:24;10.00;31.30
13268;DHT22;6702;47.068;15.458;2023-04-03T16:35:29;9.80;32.50
13268;DHT22;6702;47.068;15.458;2023-04-03T16:38:34;9.70;33.00
13268;DHT22;6702;47.068;15.458;2023-04-03T16:41:38;9.50;33.00
13268;DHT22;6702;47.068;15.458;2023-04-03T16:44:42;9.40;34.40
13268;DHT22;6702;47.068;15.458;2023-04-03T16:47:45;9.30;34.60
13268;DHT22;6702;47.068;15.458;2023-04-03T16:50:49;9.20;34.10
13268;DHT22;6702;47.068;15.458;2023-04-03T16:53:56;9.10;34.20
13268;DHT22;6702;47.068;15.458;2023-04-03T16:57:00;9.00;35.20
13268;DHT22;6702;47.068;15.458;2023-04-03T17:00:05;8.90;35.50
13268;DHT22;6702;47.068;15.458;2023-04-03T17:03:11;8.80;35.10
13268;DHT22;6702;47.068;15.458;2023-04-03T17:06:17;8.70;35.20
13268;DHT22;6702;47.068;15.458;2023-04-03T17:09:22;8.60;34.20
13268;DHT22;6702;47.068;15.458;2023-04-03T17:12:27;8.50;33.60
13268;DHT22;6702;47.068;15.458;2023-04-03T17:15:30;8.30;33.50
13268;DHT22;6702;47.068;15.458;2023-04-03T17:18:34;8.10;33.60
13268;DHT22;6702;47.068;15.458;2023-04-03T17:21:38;8.00;34.30
13268;DHT22;6702;47.068;15.458;2023-04-03T17:24:44;8.00;34.10
13268;DHT22;6702;47.068;15.458;2023-04-03T17:27:48;7.90;34.80
13268;DHT22;6702;47.068;15.458;2023-04-03T17:30:52;7.90;34.90
13268;DHT22;6702;47.068;15.458;2023-04-03T17:33:56;7.80;35.20
13268;DHT22;6702;47.068;15.458;2023-04-03T17:37:02;7.80;35.10
13268;DHT22;6702;47.068;15.458;2023-04-03T17:40:09;7.80;35.40
13268;DHT22;6702;47.068;15.458;2023-04-03T17:43:15;7.70;35.10
13268;DHT22;6702;47.068;15.458;2023-04-03T17:46:19;7.70;34.60
13268;DHT22;6702;47.068;15.458;2023-04-03T17:49:23;7.60;35.70
13268;DHT22;6702;47.068;15.458;2023-04-03T17:52:27;7.50;34.90
13268;DHT22;6702;47.068;15.458;2023-04-03T17:55:36;7.40;35.20
13268;DHT22;6702;47.068;15.458;2023-04-03T17:58:40;7.40;35.70
13268;DHT22;6702;47.068;15.458;2023-04-03T18:01:45;7.30;35.70
13268;DHT22;6702;47.068;15.458;2023-04-03T18:04:52;7.30;35.80
13268;DHT22;6702;47.068;15.458;2023-04-03T18:07:57;7.20;35.70
13268;DHT22;6702;47.068;15.458;2023-04-03T18:11:06;7.20;35.70
13268;DHT22;6702;47.068;15.458;2023-04-03T18:14:13;7.10;35.60
13268;DHT22;6702;47.068;15.458;2023-04-03T18:17:18;7.00;35.50
13268;DHT22;6702;47.068;15.458;2023-04-03T18:20:23;7.00;35.90
13268;DHT22;6702;47.068;15.458;2023-04-03T18:23:28;7.00;35.40
13268;DHT22;6702;47.068;15.458;2023-04-03T18:26:39;6.90;35.20
13268;DHT22;6702;47.068;15.458;2023-04-03T18:29:48;6.90;35.50
13268;DHT22;6702;47.068;15.458;2023-04-03T18:32:54;6.80;35.80
13268;DHT22;6702;47.068;15.458;2023-04-03T18:35:58;6.80;35.70
13268;DHT22;6702;47.068;15.458;2023-04-03T18:39:04;6.80;35.40
13268;DHT22;6702;47.068;15.458;2023-04-03T18:42:12;6.70;35.50
13268;DHT22;6702;47.068;15.458;2023-04-03T18:45:21;6.70;35.60
13268;DHT22;6702;47.068;15.458;2023-04-03T18:48:26;6.70;35.30
13268;DHT22;6702;47.068;15.458;2023-04-03T18:51:33;6.60;35.20
13268;DHT22;6702;47.068;15.458;2023-04-03T18:54:37;6.50;34.90
13268;DHT22;6702;47.068;15.458;2023-04-03T18:57:43;6.40;35.10
13268;DHT22;6702;47.068;15.458;2023-04-03T19:00:49;6.40;35.10
13268;DHT22;6702;47.068;15.458;2023-04-03T19:03:53;6.40;35.10
13268;DHT22;6702;47.068;15.458;2023-04-03T19:06:58;6.40;35.10
13268;DHT22;6702;47.068;15.458;2023-04-03T19:10:06;6.40;35.50
13268;DHT22;6702;47.068;15.458;2023-04-03T19:13:12;6.40;35.70
13268;DHT22;6702;47.068;15.458;2023-04-03T19:16:17;6.30;35.70
13268;DHT22;6702;47.068;15.458;2023-04-03T19:19:24;6.30;36.00
13268;DHT22;6702;47.068;15.458;2023-04-03T19:22:28;6.30;36.00
13268;DHT22;6702;47.068;15.458;2023-04-03T19:25:37;6.20;36.40
13268;DHT22;6702;47.068;15.458;2023-04-03T19:28:45;6.20;36.10
13268;DHT22;6702;47.068;15.458;2023-04-03T19:31:52;6.20;36.00
13268;DHT22;6702;47.068;15.458;2023-04-03T19:34:57;6.10;36.30
13268;DHT22;6702;47.068;15.458;2023-04-03T19:38:02;5.90;36.10
13268;DHT22;6702;47.068;15.458;2023-04-03T19:41:11;5.90;36.80
13268;DHT22;6702;47.068;15.458;2023-04-03T19:44:18;5.90;36.90
13268;DHT22;6702;47.068;15.458;2023-04-03T19:47:23;5.80;36.70
13268;DHT22;6702;47.068;15.458;2023-04-03T19:50:29;5.80;36.90
13268;DHT22;6702;47.068;15.458;2023-04-03T19:53:34;5.80;36.90